Clarenville, Canada
Current Conditions -  °F | °C
As of 2:00 PM on Friday 31 Oct 2014 (Local Time) from CYQX Reporting Station
Scattered Clouds Scattered Clouds  
Wind Chill: 40°   Ceiling: Unl
Heat Index: 46°   Visibility: 20mi
Dew Point: 32°   Wind: 14mph
Humidity: 57%   Direction: 290°WNW
Pressure: 29.92"   Gusts: NA
Location:  48.15°N, 53.97°W
Report Text: CYQX 311600Z 29012KT 20SM SCT032 08/M00 A2992 RMK SC3 SLP136
Loading
Personal Weather Stations






























Interactive Weather Map
Tropical Storm Tracking
New forecast layout! Learn more

10-Day Weather Forecast

Advertisements
Track Severe Weather on mobile